sensor_id;sensor_type;location;lat;lon;timestamp;temperature;humidity
11067;DHT22;29763;50.904;5.530;2022-07-09T00:00:51;15.50;99.90
11067;DHT22;29763;50.904;5.530;2022-07-09T00:03:27;15.50;99.90
11067;DHT22;29763;50.904;5.530;2022-07-09T00:06:21;15.40;99.90
11067;DHT22;29763;50.904;5.530;2022-07-09T00:09:12;15.40;99.90
11067;DHT22;29763;50.904;5.530;2022-07-09T00:12:04;15.40;99.90
11067;DHT22;29763;50.904;5.530;2022-07-09T00:15:22;15.30;99.90
11067;DHT22;29763;50.904;5.530;2022-07-09T00:18:10;15.30;99.90
11067;DHT22;29763;50.904;5.530;2022-07-09T00:21:14;15.30;99.90
11067;DHT22;29763;50.904;5.530;2022-07-09T00:23:48;15.30;99.90
11067;DHT22;29763;50.904;5.530;2022-07-09T00:26:53;15.30;99.90
11067;DHT22;29763;50.904;5.530;2022-07-09T00:29:45;15.30;99.90
11067;DHT22;29763;50.904;5.530;2022-07-09T00:32:22;15.20;99.90
11067;DHT22;29763;50.904;5.530;2022-07-09T00:35:19;15.20;99.90
11067;DHT22;29763;50.904;5.530;2022-07-09T00:38:05;15.10;99.90
11067;DHT22;29763;50.904;5.530;2022-07-09T00:44:42;15.10;99.90
11067;DHT22;29763;50.904;5.530;2022-07-09T00:47:15;15.00;99.90
11067;DHT22;29763;50.904;5.530;2022-07-09T00:50:09;15.00;99.90
11067;DHT22;29763;50.904;5.530;2022-07-09T00:52:48;15.00;99.90
11067;DHT22;29763;50.904;5.530;2022-07-09T00:55:46;15.00;99.90
11067;DHT22;29763;50.904;5.530;2022-07-09T00:58:25;14.90;99.90
11067;DHT22;29763;50.904;5.530;2022-07-09T01:03:51;14.80;99.90
11067;DHT22;29763;50.904;5.530;2022-07-09T01:11:59;14.70;99.90
11067;DHT22;29763;50.904;5.530;2022-07-09T01:14:26;14.70;99.90
11067;DHT22;29763;50.904;5.530;2022-07-09T01:17:03;14.70;99.90
11067;DHT22;29763;50.904;5.530;2022-07-09T01:19:33;14.70;99.90
11067;DHT22;29763;50.904;5.530;2022-07-09T01:21:59;14.70;99.90
11067;DHT22;29763;50.904;5.530;2022-07-09T01:24:27;14.70;99.90
11067;DHT22;29763;50.904;5.530;2022-07-09T01:26:54;14.70;99.90
11067;DHT22;29763;50.904;5.530;2022-07-09T01:29:20;14.70;99.90
11067;DHT22;29763;50.904;5.530;2022-07-09T01:31:46;14.70;99.90
11067;DHT22;29763;50.904;5.530;2022-07-09T01:34:12;14.70;99.90
11067;DHT22;29763;50.904;5.530;2022-07-09T01:36:41;14.60;99.90
11067;DHT22;29763;50.904;5.530;2022-07-09T01:39:06;14.60;99.90
11067;DHT22;29763;50.904;5.530;2022-07-09T01:41:32;14.60;99.90
11067;DHT22;29763;50.904;5.530;2022-07-09T01:43:58;14.60;99.90
11067;DHT22;29763;50.904;5.530;2022-07-09T01:46:26;14.50;99.90
11067;DHT22;29763;50.904;5.530;2022-07-09T01:48:52;14.50;99.90
11067;DHT22;29763;50.904;5.530;2022-07-09T01:51:18;14.50;99.90
11067;DHT22;29763;50.904;5.530;2022-07-09T01:53:44;14.40;99.90
11067;DHT22;29763;50.904;5.530;2022-07-09T01:56:11;14.40;99.90
11067;DHT22;29763;50.904;5.530;2022-07-09T01:58:37;14.40;99.90
11067;DHT22;29763;50.904;5.530;2022-07-09T02:01:04;14.40;99.90
11067;DHT22;29763;50.904;5.530;2022-07-09T02:03:30;14.30;99.90
11067;DHT22;29763;50.904;5.530;2022-07-09T02:05:56;14.30;99.90
11067;DHT22;29763;50.904;5.530;2022-07-09T02:08:22;14.30;99.90
11067;DHT22;29763;50.904;5.530;2022-07-09T02:10:49;14.30;99.90
11067;DHT22;29763;50.904;5.530;2022-07-09T02:13:15;14.30;99.90
11067;DHT22;29763;50.904;5.530;2022-07-09T02:15:40;14.30;99.90
11067;DHT22;29763;50.904;5.530;2022-07-09T02:18:06;14.30;99.90
11067;DHT22;29763;50.904;5.530;2022-07-09T02:20:32;14.30;99.90
11067;DHT22;29763;50.904;5.530;2022-07-09T02:22:58;14.30;99.90
11067;DHT22;29763;50.904;5.530;2022-07-09T02:25:24;14.20;99.90
11067;DHT22;29763;50.904;5.530;2022-07-09T02:27:50;14.20;99.90
11067;DHT22;29763;50.904;5.530;2022-07-09T02:30:15;14.10;99.90
11067;DHT22;29763;50.904;5.530;2022-07-09T02:32:41;14.10;99.90
11067;DHT22;29763;50.904;5.530;2022-07-09T02:35:07;14.10;99.90
11067;DHT22;29763;50.904;5.530;2022-07-09T02:37:33;14.10;99.90
11067;DHT22;29763;50.904;5.530;2022-07-09T02:40:02;14.10;99.90
11067;DHT22;29763;50.904;5.530;2022-07-09T02:42:27;14.10;99.90
11067;DHT22;29763;50.904;5.530;2022-07-09T02:44:53;14.00;99.90
11067;DHT22;29763;50.904;5.530;2022-07-09T02:47:19;14.00;99.90
11067;DHT22;29763;50.904;5.530;2022-07-09T02:49:45;14.00;99.90
11067;DHT22;29763;50.904;5.530;2022-07-09T02:52:10;14.00;99.90
11067;DHT22;29763;50.904;5.530;2022-07-09T02:54:36;14.00;99.90
11067;DHT22;29763;50.904;5.530;2022-07-09T02:57:02;14.00;99.90
11067;DHT22;29763;50.904;5.530;2022-07-09T02:59:28;13.90;99.90
11067;DHT22;29763;50.904;5.530;2022-07-09T03:01:54;13.90;99.90
11067;DHT22;29763;50.904;5.530;2022-07-09T03:04:20;13.90;99.90
11067;DHT22;29763;50.904;5.530;2022-07-09T03:06:46;13.90;99.90
11067;DHT22;29763;50.904;5.530;2022-07-09T03:09:13;13.80;99.90
11067;DHT22;29763;50.904;5.530;2022-07-09T03:11:38;13.80;99.90
11067;DHT22;29763;50.904;5.530;2022-07-09T03:14:04;13.80;99.90
11067;DHT22;29763;50.904;5.530;2022-07-09T03:16:30;13.70;99.90
11067;DHT22;29763;50.904;5.530;2022-07-09T03:18:55;13.70;99.90
11067;DHT22;29763;50.904;5.530;2022-07-09T03:21:21;13.70;99.90
11067;DHT22;29763;50.904;5.530;2022-07-09T03:23:47;13.70;99.90
11067;DHT22;29763;50.904;5.530;2022-07-09T03:26:13;13.60;99.90
11067;DHT22;29763;50.904;5.530;2022-07-09T03:28:41;13.60;99.90
11067;DHT22;29763;50.904;5.530;2022-07-09T03:31:06;13.60;99.90
11067;DHT22;29763;50.904;5.530;2022-07-09T03:33:32;13.60;99.90
11067;DHT22;29763;50.904;5.530;2022-07-09T03:35:58;13.50;99.90
11067;DHT22;29763;50.904;5.530;2022-07-09T03:38:24;13.50;99.90
11067;DHT22;29763;50.904;5.530;2022-07-09T03:40:50;13.50;99.90
11067;DHT22;29763;50.904;5.530;2022-07-09T03:43:16;13.40;99.90
11067;DHT22;29763;50.904;5.530;2022-07-09T03:45:42;13.50;99.90
11067;DHT22;29763;50.904;5.530;2022-07-09T03:48:07;13.50;99.90
11067;DHT22;29763;50.904;5.530;2022-07-09T03:50:34;13.40;99.90
11067;DHT22;29763;50.904;5.530;2022-07-09T03:52:59;13.50;99.90
11067;DHT22;29763;50.904;5.530;2022-07-09T03:55:25;13.50;99.90
11067;DHT22;29763;50.904;5.530;2022-07-09T03:57:51;13.50;99.90
11067;DHT22;29763;50.904;5.530;2022-07-09T04:00:16;13.50;99.90
11067;DHT22;29763;50.904;5.530;2022-07-09T04:02:42;13.50;99.90
11067;DHT22;29763;50.904;5.530;2022-07-09T04:05:08;13.50;99.90
11067;DHT22;29763;50.904;5.530;2022-07-09T04:07:35;13.50;99.90
11067;DHT22;29763;50.904;5.530;2022-07-09T04:10:01;13.50;99.90
11067;DHT22;29763;50.904;5.530;2022-07-09T04:12:26;13.50;99.90
11067;DHT22;29763;50.904;5.530;2022-07-09T04:14:52;13.60;99.90
11067;DHT22;29763;50.904;5.530;2022-07-09T04:17:18;13.60;99.90
11067;DHT22;29763;50.904;5.530;2022-07-09T04:19:44;13.60;99.90
11067;DHT22;29763;50.904;5.530;2022-07-09T04:22:09;13.60;99.90
11067;DHT22;29763;50.904;5.530;2022-07-09T04:24:35;13.60;99.90
11067;DHT22;29763;50.904;5.530;2022-07-09T04:27:01;13.60;99.90
11067;DHT22;29763;50.904;5.530;2022-07-09T04:29:26;13.70;99.90
11067;DHT22;29763;50.904;5.530;2022-07-09T04:31:52;13.70;99.90
11067;DHT22;29763;50.904;5.530;2022-07-09T04:34:18;13.70;99.90
11067;DHT22;29763;50.904;5.530;2022-07-09T04:36:43;13.70;99.90
11067;DHT22;29763;50.904;5.530;2022-07-09T04:39:09;13.70;99.90
11067;DHT22;29763;50.904;5.530;2022-07-09T04:41:36;13.80;99.90
11067;DHT22;29763;50.904;5.530;2022-07-09T04:44:02;13.70;99.90
11067;DHT22;29763;50.904;5.530;2022-07-09T04:46:34;13.80;99.90
11067;DHT22;29763;50.904;5.530;2022-07-09T04:48:59;13.90;99.90
11067;DHT22;29763;50.904;5.530;2022-07-09T04:51:25;13.80;99.90
11067;DHT22;29763;50.904;5.530;2022-07-09T04:53:51;13.90;99.90
11067;DHT22;29763;50.904;5.530;2022-07-09T04:56:16;14.00;99.90
11067;DHT22;29763;50.904;5.530;2022-07-09T04:58:42;14.10;99.90
11067;DHT22;29763;50.904;5.530;2022-07-09T05:01:26;14.20;99.90
11067;DHT22;29763;50.904;5.530;2022-07-09T05:03:52;14.30;99.90
11067;DHT22;29763;50.904;5.530;2022-07-09T05:06:18;14.50;99.90
11067;DHT22;29763;50.904;5.530;2022-07-09T05:08:45;14.70;99.90
11067;DHT22;29763;50.904;5.530;2022-07-09T05:11:11;14.90;99.90
11067;DHT22;29763;50.904;5.530;2022-07-09T05:13:37;15.10;99.90
11067;DHT22;29763;50.904;5.530;2022-07-09T05:16:07;15.20;99.90
11067;DHT22;29763;50.904;5.530;2022-07-09T05:18:34;15.30;99.90
11067;DHT22;29763;50.904;5.530;2022-07-09T05:21:00;15.40;99.90
11067;DHT22;29763;50.904;5.530;2022-07-09T05:23:26;15.50;99.90
11067;DHT22;29763;50.904;5.530;2022-07-09T05:25:51;15.70;99.90
11067;DHT22;29763;50.904;5.530;2022-07-09T05:28:18;15.70;99.90
11067;DHT22;29763;50.904;5.530;2022-07-09T05:30:44;15.80;99.90
11067;DHT22;29763;50.904;5.530;2022-07-09T05:33:10;15.90;99.90
11067;DHT22;29763;50.904;5.530;2022-07-09T05:35:36;16.10;99.90
11067;DHT22;29763;50.904;5.530;2022-07-09T05:38:02;16.30;99.90
11067;DHT22;29763;50.904;5.530;2022-07-09T05:40:27;16.60;99.90
11067;DHT22;29763;50.904;5.530;2022-07-09T05:42:53;16.90;99.90
11067;DHT22;29763;50.904;5.530;2022-07-09T05:45:19;17.20;99.90
11067;DHT22;29763;50.904;5.530;2022-07-09T05:47:45;17.30;99.90
11067;DHT22;29763;50.904;5.530;2022-07-09T05:50:10;17.40;99.90
11067;DHT22;29763;50.904;5.530;2022-07-09T05:52:36;17.50;99.90
11067;DHT22;29763;50.904;5.530;2022-07-09T05:55:02;17.50;99.90
11067;DHT22;29763;50.904;5.530;2022-07-09T05:57:29;17.70;99.90
11067;DHT22;29763;50.904;5.530;2022-07-09T05:59:55;17.80;99.90
11067;DHT22;29763;50.904;5.530;2022-07-09T06:02:21;17.90;99.90
11067;DHT22;29763;50.904;5.530;2022-07-09T06:04:50;17.90;99.90
11067;DHT22;29763;50.904;5.530;2022-07-09T06:07:16;18.00;99.90
11067;DHT22;29763;50.904;5.530;2022-07-09T06:09:44;18.00;99.90
11067;DHT22;29763;50.904;5.530;2022-07-09T06:12:10;18.10;99.90
11067;DHT22;29763;50.904;5.530;2022-07-09T06:14:36;18.30;99.90
11067;DHT22;29763;50.904;5.530;2022-07-09T06:17:02;18.40;99.90
11067;DHT22;29763;50.904;5.530;2022-07-09T06:19:35;18.70;99.90
11067;DHT22;29763;50.904;5.530;2022-07-09T06:22:01;19.20;99.90
11067;DHT22;29763;50.904;5.530;2022-07-09T06:24:27;19.70;99.90
11067;DHT22;29763;50.904;5.530;2022-07-09T06:26:53;20.10;99.90
11067;DHT22;29763;50.904;5.530;2022-07-09T06:29:20;20.60;99.90
11067;DHT22;29763;50.904;5.530;2022-07-09T06:31:45;21.10;99.90
11067;DHT22;29763;50.904;5.530;2022-07-09T06:34:11;21.50;99.90
11067;DHT22;29763;50.904;5.530;2022-07-09T06:36:38;21.70;99.90
11067;DHT22;29763;50.904;5.530;2022-07-09T06:39:04;22.00;99.90
11067;DHT22;29763;50.904;5.530;2022-07-09T06:41:48;22.10;99.90
11067;DHT22;29763;50.904;5.530;2022-07-09T06:44:14;22.10;99.90
11067;DHT22;29763;50.904;5.530;2022-07-09T06:46:40;22.00;99.90
11067;DHT22;29763;50.904;5.530;2022-07-09T06:49:06;21.90;99.90
11067;DHT22;29763;50.904;5.530;2022-07-09T06:51:32;21.70;99.90
11067;DHT22;29763;50.904;5.530;2022-07-09T06:53:58;21.60;99.90
11067;DHT22;29763;50.904;5.530;2022-07-09T06:56:23;21.60;99.90
11067;DHT22;29763;50.904;5.530;2022-07-09T06:58:49;21.60;99.90
11067;DHT22;29763;50.904;5.530;2022-07-09T07:01:15;21.50;99.90
11067;DHT22;29763;50.904;5.530;2022-07-09T07:03:41;21.50;99.90
11067;DHT22;29763;50.904;5.530;2022-07-09T07:06:07;21.50;99.90
11067;DHT22;29763;50.904;5.530;2022-07-09T07:08:33;21.40;99.90
11067;DHT22;29763;50.904;5.530;2022-07-09T07:10:59;21.50;99.90
11067;DHT22;29763;50.904;5.530;2022-07-09T07:13:25;21.60;99.90
11067;DHT22;29763;50.904;5.530;2022-07-09T07:15:51;21.70;99.90
11067;DHT22;29763;50.904;5.530;2022-07-09T07:18:16;21.80;99.90
11067;DHT22;29763;50.904;5.530;2022-07-09T07:20:43;21.90;99.90
11067;DHT22;29763;50.904;5.530;2022-07-09T07:23:09;22.10;99.90
11067;DHT22;29763;50.904;5.530;2022-07-09T07:25:35;22.10;99.90
11067;DHT22;29763;50.904;5.530;2022-07-09T07:28:00;22.20;99.90
11067;DHT22;29763;50.904;5.530;2022-07-09T07:30:27;22.30;99.90
11067;DHT22;29763;50.904;5.530;2022-07-09T07:32:53;22.40;99.90
11067;DHT22;29763;50.904;5.530;2022-07-09T07:35:19;22.60;99.90
11067;DHT22;29763;50.904;5.530;2022-07-09T07:37:45;22.70;99.90
11067;DHT22;29763;50.904;5.530;2022-07-09T07:40:11;22.90;99.90
11067;DHT22;29763;50.904;5.530;2022-07-09T07:42:37;23.10;99.90
11067;DHT22;29763;50.904;5.530;2022-07-09T07:45:03;23.30;99.90
11067;DHT22;29763;50.904;5.530;2022-07-09T07:47:29;23.40;99.90
11067;DHT22;29763;50.904;5.530;2022-07-09T07:49:57;23.50;99.90
11067;DHT22;29763;50.904;5.530;2022-07-09T07:52:23;23.50;99.90
11067;DHT22;29763;50.904;5.530;2022-07-09T07:54:48;23.50;99.90
11067;DHT22;29763;50.904;5.530;2022-07-09T07:57:14;23.70;99.90
11067;DHT22;29763;50.904;5.530;2022-07-09T07:59:40;23.90;99.90
11067;DHT22;29763;50.904;5.530;2022-07-09T08:02:06;24.20;99.90
11067;DHT22;29763;50.904;5.530;2022-07-09T08:04:32;24.60;99.90
11067;DHT22;29763;50.904;5.530;2022-07-09T08:06:58;25.10;99.90
11067;DHT22;29763;50.904;5.530;2022-07-09T08:09:24;25.60;99.90
11067;DHT22;29763;50.904;5.530;2022-07-09T08:11:49;25.80;99.90
11067;DHT22;29763;50.904;5.530;2022-07-09T08:14:15;26.10;99.90
11067;DHT22;29763;50.904;5.530;2022-07-09T08:16:41;26.10;99.90
11067;DHT22;29763;50.904;5.530;2022-07-09T08:19:07;26.30;99.90
11067;DHT22;29763;50.904;5.530;2022-07-09T08:21:32;26.80;99.90
11067;DHT22;29763;50.904;5.530;2022-07-09T08:23:58;27.40;99.90
11067;DHT22;29763;50.904;5.530;2022-07-09T08:26:26;28.00;99.90
11067;DHT22;29763;50.904;5.530;2022-07-09T08:28:53;28.40;99.90
11067;DHT22;29763;50.904;5.530;2022-07-09T08:31:19;28.50;99.90
11067;DHT22;29763;50.904;5.530;2022-07-09T08:33:46;28.30;99.90
11067;DHT22;29763;50.904;5.530;2022-07-09T08:36:12;28.10;99.90
11067;DHT22;29763;50.904;5.530;2022-07-09T08:38:38;28.10;99.90
11067;DHT22;29763;50.904;5.530;2022-07-09T08:41:05;28.10;99.90
11067;DHT22;29763;50.904;5.530;2022-07-09T08:43:36;28.50;99.90
11067;DHT22;29763;50.904;5.530;2022-07-09T08:46:02;28.90;99.90
11067;DHT22;29763;50.904;5.530;2022-07-09T08:48:32;29.30;99.90
11067;DHT22;29763;50.904;5.530;2022-07-09T08:50:59;29.80;99.90
11067;DHT22;29763;50.904;5.530;2022-07-09T08:53:25;30.20;99.90
11067;DHT22;29763;50.904;5.530;2022-07-09T08:55:53;30.40;99.90
11067;DHT22;29763;50.904;5.530;2022-07-09T08:58:19;30.50;99.90
11067;DHT22;29763;50.904;5.530;2022-07-09T09:00:45;30.50;99.90
11067;DHT22;29763;50.904;5.530;2022-07-09T09:03:13;30.40;99.90
11067;DHT22;29763;50.904;5.530;2022-07-09T09:05:38;30.40;99.90
11067;DHT22;29763;50.904;5.530;2022-07-09T09:08:20;30.40;99.90
11067;DHT22;29763;50.904;5.530;2022-07-09T09:10:49;30.20;99.90
11067;DHT22;29763;50.904;5.530;2022-07-09T09:13:17;30.00;99.90
11067;DHT22;29763;50.904;5.530;2022-07-09T09:15:43;30.10;99.90
11067;DHT22;29763;50.904;5.530;2022-07-09T09:18:09;30.40;99.90
11067;DHT22;29763;50.904;5.530;2022-07-09T09:20:35;30.70;99.90
11067;DHT22;29763;50.904;5.530;2022-07-09T09:23:02;31.10;99.90
11067;DHT22;29763;50.904;5.530;2022-07-09T09:25:30;31.30;99.90
11067;DHT22;29763;50.904;5.530;2022-07-09T09:27:59;31.40;99.70
11067;DHT22;29763;50.904;5.530;2022-07-09T09:30:27;31.10;98.80
11067;DHT22;29763;50.904;5.530;2022-07-09T09:33:02;30.80;98.70
11067;DHT22;29763;50.904;5.530;2022-07-09T09:35:32;31.00;99.30
11067;DHT22;29763;50.904;5.530;2022-07-09T09:37:58;31.40;99.00
11067;DHT22;29763;50.904;5.530;2022-07-09T09:40:24;31.90;98.50
11067;DHT22;29763;50.904;5.530;2022-07-09T09:42:51;32.20;97.30
11067;DHT22;29763;50.904;5.530;2022-07-09T09:45:18;32.50;96.80
11067;DHT22;29763;50.904;5.530;2022-07-09T09:47:49;32.90;96.70
11067;DHT22;29763;50.904;5.530;2022-07-09T09:50:20;33.10;96.40
11067;DHT22;29763;50.904;5.530;2022-07-09T09:52:47;32.70;96.40
11067;DHT22;29763;50.904;5.530;2022-07-09T09:55:15;32.20;96.90
11067;DHT22;29763;50.904;5.530;2022-07-09T09:57:42;32.00;97.20
11067;DHT22;29763;50.904;5.530;2022-07-09T10:00:08;31.70;97.60
11067;DHT22;29763;50.904;5.530;2022-07-09T10:02:34;31.20;97.70
11067;DHT22;29763;50.904;5.530;2022-07-09T10:05:01;30.90;98.70
11067;DHT22;29763;50.904;5.530;2022-07-09T10:07:28;31.20;97.60
11067;DHT22;29763;50.904;5.530;2022-07-09T10:09:56;31.10;97.10
11067;DHT22;29763;50.904;5.530;2022-07-09T10:12:33;31.00;97.40
11067;DHT22;29763;50.904;5.530;2022-07-09T10:15:00;31.20;97.20
11067;DHT22;29763;50.904;5.530;2022-07-09T10:17:26;31.40;96.60
11067;DHT22;29763;50.904;5.530;2022-07-09T10:20:03;31.30;96.90
11067;DHT22;29763;50.904;5.530;2022-07-09T10:22:40;31.10;97.20
11067;DHT22;29763;50.904;5.530;2022-07-09T10:25:08;31.00;96.90
11067;DHT22;29763;50.904;5.530;2022-07-09T10:27:45;31.10;97.00
11067;DHT22;29763;50.904;5.530;2022-07-09T10:30:32;31.40;96.80
11067;DHT22;29763;50.904;5.530;2022-07-09T10:33:09;31.40;96.60
11067;DHT22;29763;50.904;5.530;2022-07-09T10:35:47;31.40;96.70
11067;DHT22;29763;50.904;5.530;2022-07-09T10:38:16;31.80;96.20
11067;DHT22;29763;50.904;5.530;2022-07-09T10:40:44;31.70;95.20
11067;DHT22;29763;50.904;5.530;2022-07-09T10:43:11;31.80;95.50
11067;DHT22;29763;50.904;5.530;2022-07-09T10:45:40;32.20;96.30
11067;DHT22;29763;50.904;5.530;2022-07-09T10:48:08;32.30;95.60
11067;DHT22;29763;50.904;5.530;2022-07-09T10:50:43;32.20;95.80
11067;DHT22;29763;50.904;5.530;2022-07-09T10:53:10;32.50;96.00
11067;DHT22;29763;50.904;5.530;2022-07-09T10:55:37;32.10;95.60
11067;DHT22;29763;50.904;5.530;2022-07-09T10:58:03;31.90;96.20
11067;DHT22;29763;50.904;5.530;2022-07-09T11:00:34;31.60;96.70
11067;DHT22;29763;50.904;5.530;2022-07-09T11:03:04;30.60;97.10
11067;DHT22;29763;50.904;5.530;2022-07-09T11:05:44;30.20;97.90
11067;DHT22;29763;50.904;5.530;2022-07-09T11:08:09;30.20;98.20
11067;DHT22;29763;50.904;5.530;2022-07-09T11:10:37;30.50;98.40
11067;DHT22;29763;50.904;5.530;2022-07-09T11:13:04;30.90;97.60
11067;DHT22;29763;50.904;5.530;2022-07-09T11:15:33;31.50;96.80
11067;DHT22;29763;50.904;5.530;2022-07-09T11:20:32;32.50;95.60
11067;DHT22;29763;50.904;5.530;2022-07-09T11:22:58;32.60;95.40
11067;DHT22;29763;50.904;5.530;2022-07-09T11:25:27;32.20;95.30
11067;DHT22;29763;50.904;5.530;2022-07-09T11:27:54;32.00;95.10
11067;DHT22;29763;50.904;5.530;2022-07-09T11:30:20;32.00;95.00
11067;DHT22;29763;50.904;5.530;2022-07-09T11:32:47;31.80;95.50
11067;DHT22;29763;50.904;5.530;2022-07-09T11:35:26;31.40;95.40
11067;DHT22;29763;50.904;5.530;2022-07-09T11:37:53;30.50;95.80
11067;DHT22;29763;50.904;5.530;2022-07-09T11:40:19;29.70;97.00
11067;DHT22;29763;50.904;5.530;2022-07-09T11:42:45;29.40;98.00
11067;DHT22;29763;50.904;5.530;2022-07-09T11:45:11;29.10;98.20
11067;DHT22;29763;50.904;5.530;2022-07-09T11:47:41;29.00;98.60
11067;DHT22;29763;50.904;5.530;2022-07-09T11:50:09;29.10;99.00
11067;DHT22;29763;50.904;5.530;2022-07-09T11:52:46;29.40;98.50
11067;DHT22;29763;50.904;5.530;2022-07-09T11:55:15;29.60;98.30
11067;DHT22;29763;50.904;5.530;2022-07-09T11:57:51;29.50;98.30
11067;DHT22;29763;50.904;5.530;2022-07-09T12:00:28;29.40;98.90
11067;DHT22;29763;50.904;5.530;2022-07-09T12:02:55;29.00;99.20
11067;DHT22;29763;50.904;5.530;2022-07-09T12:05:26;28.60;99.20
11067;DHT22;29763;50.904;5.530;2022-07-09T12:07:55;28.60;99.80
11067;DHT22;29763;50.904;5.530;2022-07-09T12:10:31;29.10;99.50
11067;DHT22;29763;50.904;5.530;2022-07-09T12:12:58;29.90;99.60
11067;DHT22;29763;50.904;5.530;2022-07-09T12:15:25;30.70;98.10
11067;DHT22;29763;50.904;5.530;2022-07-09T12:17:53;31.10;97.40
11067;DHT22;29763;50.904;5.530;2022-07-09T12:20:23;30.80;97.10
11067;DHT22;29763;50.904;5.530;2022-07-09T12:22:50;30.50;97.50
11067;DHT22;29763;50.904;5.530;2022-07-09T12:25:16;30.40;97.90
11067;DHT22;29763;50.904;5.530;2022-07-09T12:27:42;30.50;98.40
11067;DHT22;29763;50.904;5.530;2022-07-09T12:30:08;30.60;97.90
11067;DHT22;29763;50.904;5.530;2022-07-09T12:32:34;30.50;97.90
11067;DHT22;29763;50.904;5.530;2022-07-09T12:35:00;30.20;97.80
11067;DHT22;29763;50.904;5.530;2022-07-09T12:37:26;29.80;99.10
11067;DHT22;29763;50.904;5.530;2022-07-09T12:39:52;29.60;99.30
11067;DHT22;29763;50.904;5.530;2022-07-09T12:42:19;30.10;98.60
11067;DHT22;29763;50.904;5.530;2022-07-09T12:44:45;30.10;97.50
11067;DHT22;29763;50.904;5.530;2022-07-09T12:47:11;29.60;98.60
11067;DHT22;29763;50.904;5.530;2022-07-09T12:49:37;29.10;99.50
11067;DHT22;29763;50.904;5.530;2022-07-09T12:52:03;28.60;99.90
11067;DHT22;29763;50.904;5.530;2022-07-09T12:54:28;28.00;99.90
11067;DHT22;29763;50.904;5.530;2022-07-09T12:56:55;27.70;99.90
11067;DHT22;29763;50.904;5.530;2022-07-09T12:59:21;27.60;99.90
11067;DHT22;29763;50.904;5.530;2022-07-09T13:01:47;27.80;99.90
11067;DHT22;29763;50.904;5.530;2022-07-09T13:04:14;27.60;99.90
11067;DHT22;29763;50.904;5.530;2022-07-09T13:06:41;27.20;99.90
11067;DHT22;29763;50.904;5.530;2022-07-09T13:09:08;27.10;99.90
11067;DHT22;29763;50.904;5.530;2022-07-09T13:11:35;27.20;99.90
11067;DHT22;29763;50.904;5.530;2022-07-09T13:14:03;27.70;99.90
11067;DHT22;29763;50.904;5.530;2022-07-09T13:16:29;27.80;99.90
11067;DHT22;29763;50.904;5.530;2022-07-09T13:18:56;27.40;99.20
11067;DHT22;29763;50.904;5.530;2022-07-09T13:21:22;27.00;99.90
11067;DHT22;29763;50.904;5.530;2022-07-09T13:23:49;26.90;99.90
11067;DHT22;29763;50.904;5.530;2022-07-09T13:26:15;27.10;99.90
11067;DHT22;29763;50.904;5.530;2022-07-09T13:28:41;27.70;99.30
11067;DHT22;29763;50.904;5.530;2022-07-09T13:31:07;28.20;98.10
11067;DHT22;29763;50.904;5.530;2022-07-09T13:33:33;28.50;97.90
11067;DHT22;29763;50.904;5.530;2022-07-09T13:36:00;28.90;97.30
11067;DHT22;29763;50.904;5.530;2022-07-09T13:38:26;28.90;96.30
11067;DHT22;29763;50.904;5.530;2022-07-09T13:40:53;29.10;96.40
11067;DHT22;29763;50.904;5.530;2022-07-09T13:43:18;29.40;96.40
11067;DHT22;29763;50.904;5.530;2022-07-09T13:45:44;29.80;95.30
11067;DHT22;29763;50.904;5.530;2022-07-09T13:48:10;29.80;93.80
11067;DHT22;29763;50.904;5.530;2022-07-09T13:50:36;29.80;93.60
11067;DHT22;29763;50.904;5.530;2022-07-09T13:53:05;30.10;94.00
11067;DHT22;29763;50.904;5.530;2022-07-09T13:55:31;30.20;93.40
11067;DHT22;29763;50.904;5.530;2022-07-09T13:57:57;30.30;93.60
11067;DHT22;29763;50.904;5.530;2022-07-09T14:00:22;30.20;93.70
11067;DHT22;29763;50.904;5.530;2022-07-09T14:02:48;30.10;93.00
11067;DHT22;29763;50.904;5.530;2022-07-09T14:05:15;30.30;93.20
11067;DHT22;29763;50.904;5.530;2022-07-09T14:07:41;30.50;92.80
11067;DHT22;29763;50.904;5.530;2022-07-09T14:10:07;30.70;92.70
11067;DHT22;29763;50.904;5.530;2022-07-09T14:12:33;30.90;92.20
11067;DHT22;29763;50.904;5.530;2022-07-09T14:14:58;31.00;92.30
11067;DHT22;29763;50.904;5.530;2022-07-09T14:17:25;30.90;92.40
11067;DHT22;29763;50.904;5.530;2022-07-09T14:19:51;30.70;92.80
11067;DHT22;29763;50.904;5.530;2022-07-09T14:22:18;30.50;93.00
11067;DHT22;29763;50.904;5.530;2022-07-09T14:24:43;30.40;93.90
11067;DHT22;29763;50.904;5.530;2022-07-09T14:27:09;30.20;93.50
11067;DHT22;29763;50.904;5.530;2022-07-09T14:29:35;30.00;94.10
11067;DHT22;29763;50.904;5.530;2022-07-09T14:32:01;29.80;93.60
11067;DHT22;29763;50.904;5.530;2022-07-09T14:34:27;29.70;94.50
11067;DHT22;29763;50.904;5.530;2022-07-09T14:36:52;29.70;94.30
11067;DHT22;29763;50.904;5.530;2022-07-09T14:39:19;29.90;93.80
11067;DHT22;29763;50.904;5.530;2022-07-09T14:41:48;29.90;93.70
11067;DHT22;29763;50.904;5.530;2022-07-09T14:44:14;30.10;92.80
11067;DHT22;29763;50.904;5.530;2022-07-09T14:46:40;29.60;93.20
11067;DHT22;29763;50.904;5.530;2022-07-09T14:49:06;29.30;94.00
11067;DHT22;29763;50.904;5.530;2022-07-09T14:51:32;29.10;94.00
11067;DHT22;29763;50.904;5.530;2022-07-09T14:54:01;28.40;94.10
11067;DHT22;29763;50.904;5.530;2022-07-09T14:56:27;28.30;94.70
11067;DHT22;29763;50.904;5.530;2022-07-09T14:58:52;28.20;94.40
11067;DHT22;29763;50.904;5.530;2022-07-09T15:01:18;28.30;94.80
11067;DHT22;29763;50.904;5.530;2022-07-09T15:03:44;28.40;93.60
11067;DHT22;29763;50.904;5.530;2022-07-09T15:06:09;28.60;94.80
11067;DHT22;29763;50.904;5.530;2022-07-09T15:08:35;28.90;93.70
11067;DHT22;29763;50.904;5.530;2022-07-09T15:11:01;29.00;93.20
11067;DHT22;29763;50.904;5.530;2022-07-09T15:13:27;29.00;93.00
11067;DHT22;29763;50.904;5.530;2022-07-09T15:15:54;29.00;92.60
11067;DHT22;29763;50.904;5.530;2022-07-09T15:18:20;29.00;92.90
11067;DHT22;29763;50.904;5.530;2022-07-09T15:20:45;29.30;92.40
11067;DHT22;29763;50.904;5.530;2022-07-09T15:23:11;29.40;92.00
11067;DHT22;29763;50.904;5.530;2022-07-09T15:25:37;29.40;91.80
11067;DHT22;29763;50.904;5.530;2022-07-09T15:28:04;29.50;92.10
11067;DHT22;29763;50.904;5.530;2022-07-09T15:30:30;29.60;92.40
11067;DHT22;29763;50.904;5.530;2022-07-09T15:32:56;29.50;91.10
11067;DHT22;29763;50.904;5.530;2022-07-09T15:35:22;29.30;91.20
11067;DHT22;29763;50.904;5.530;2022-07-09T15:37:48;29.10;91.10
11067;DHT22;29763;50.904;5.530;2022-07-09T15:40:15;28.80;91.60
11067;DHT22;29763;50.904;5.530;2022-07-09T15:42:42;28.90;91.50
11067;DHT22;29763;50.904;5.530;2022-07-09T15:45:12;29.00;91.20
11067;DHT22;29763;50.904;5.530;2022-07-09T15:47:38;28.80;90.90
11067;DHT22;29763;50.904;5.530;2022-07-09T15:50:05;28.40;91.10